الصفحة الرئيسية
METAR-TAF:

METAR-TAF

مطار :

مطار سير سيووساغور رامغولام الدولي

موريشيوس, موريشيوس

دائرة عرض: 20-26S, خط طول: 057-40E, ارتفاع: 55 متر

مراقبة الطقس الحالي

تاريخ ووقت الإصدار 19 دقيقة قبل الساعة 12:00UTC
ريح 13 عقدة من الجنوب الشرقي تتزايد حتى 24 عقدة
درجة الحرارة 24°درجة مئوية
الرطوبة 89%
ضغط 1018 hPa
الرؤية: 7000 متر
غيوم قليلة على ارتفاع 700 قدم
غيوم متفرقة على ارتفاع 1400 قدم
غيوم مفككة على ارتفاع 10000 قدم
زخات في الجوار,

METAR: FIMP 301200Z 14013G24KT 7000 VCSH FEW007 SCT014 BKN100 24/22 Q1018

زمن: 16:19 (12:19 UTC)

توقعات

تاريخ ووقت الإصدار 34 دقيقة قبل الساعة 11:45UTC
التوقعات صالحة من30 الساعة 12 UTC إلى 31 الساعة 18 UTC
ريح 15 عقدة من الجنوب/الجنوب الشرقي تتزايد حتى 28 عقدة
الرؤية: 7000 متر
غيوم قليلة على ارتفاع 700 قدم
غيوم متفرقة على ارتفاع 1400 قدم
زخات من الأمطار الخفيفة
مؤقت
من 30 الساعة 12 UTC إلى 31 الساعة 00 UTC
الرؤية: 3000 متر
غيوم قليلة على ارتفاع 600 قدم
غيوم مفككة على ارتفاع 1300 قدم
زخات من المطر,

TAF: FIMP 301145Z 3012/3118 15015G28KT 7000 -SHRA FEW007 SCT014 TEMPO 3012/3100 3000 SHRA FEW006 BKN013

أرصاد الطقس والتوقعات من أكثر من 4000 مطار (تقارير الطقس للمطار METAR والتنبؤ بالطقس بالمطارTAF).

المحطات المتاحة هي النقط الصفراء والحمراء على الخريطة.

حرك المؤشر فوق النقطة لمعرفة اسم المحطة.

ثم انقر لمعرفة أرصاد وتوقعات الطقس.

لتغيير الخارطة: اضغط على الأزرار الخضراء مع رمز الصليب الأسود للتكبير. على الزر الأخضر مع شرطة للتصغير، أو على الأسهم الخضراء للخرائط المجاورة.


METAR-TAF: